Slave Lake Airport
CYZH : now visible

Airfield :











YOU CAN JOIN US ON...

 
LOGIN :

Register | Disclaimer

   EN    FR    IT 

 









Legend :    VFR   Marginal VFR   IFR   Intensive IFR   Very Intensive IFR
Visi :
Ceiling :
>= 8 km
>= 3000ft
5 to 8 km
1000 to 3000 ft
1500m to 5 km
500 to 1000 ft
800 to 1500m
200 to 500 ft
< 800m
< 200 ft
Symbols :   Thunderstorms  Fog  Heavy snow  Heavy precipitations  Wind > 20 kt






- Airport Elevation : 1912 ft
- IATA code : YZH


CYZH - Slave Lake

CURRENT METAR :
  • 210228Z AUTO 30018G26KT 5SM -RA BR SCT015 BKN020 OVC031 01/M00 A2961 RMK PRESRR SLP053

EXPIRED METARs :
  • 210221Z AUTO 30017G24KT 9SM -RA BKN020 OVC031 01/M00 A2960 RMK PRESRR SLP050
  • 210200Z AUTO 30019G29KT 9SM BKN022 OVC032 02/00 A2957 RMK PRESRR SLP056
  • 210103Z AUTO 28026G33KT 9SM FEW019 OVC024 03/01 A2950 RMK PRESRR SLP013
  • 210053Z AUTO 28027G35KT 9SM FEW017 OVC026 03/01 A2948 RMK PRESRR SLP007
  • 210030Z AUTO 28030G36KT 9SM -RA FEW017 SCT028 BKN038 OVC068 03/01 A2946 RMK SLP999
  • 210027Z AUTO 28027G36KT 9SM SCT017 SCT031 BKN055 OVC070 03/01 A2946 RMK SLP999
  • 210017Z AUTO 27030G39KT 9SM -RA SCT017 BKN027 BKN035 OVC055 03/01 A2945 RMK SLP995
  • 210005Z AUTO 27028G42KT 9SM -RA BKN017 OVC027 03/01 A2944 RMK SLP994
  • 202350Z AUTO 27028G35KT 9SM BKN019 OVC027 03/01 A2944 RMK SLP993
  • 202338Z AUTO 28023G30KT 9SM -RASN BKN019 OVC027 02/02 A2945 RMK SLP997

TAF TAF CYZH
Valid from the 21 at 01:00 until the 21 at 13:00 UTC


210040Z 2101/2113 28030G40KT P6SM BKN040
TEMPO 2101/2104 5SM -RA BR BKN020
FM210400 29025G35KT P6SM BKN030
TEMPO 2104/2109 2SM -SN BLSN BKN015
FM210900 29020G30KT P6SM BKN025
TEMPO 2109/2113 SCT025 RMK FCST BASED ON AUTO OBS. NXT FCST BY 210700Z
CZEG FIR / North America



MET'MAP, your aeronautical weather chart ! - Copyright ORBIFLY December 2007 - Disclaimer

ORBIFLY MET'MAP TEAM :

Programming & Development : Alexandra Zaïnal
Concept & original design : Baudouin d'Aumeries
Assistance for programming : Marc-Olivier Méhu
Technical & hardware support : Manuel Goepfert

Contact : metmap@orbifly.com




SOURCES & CREDITS :

   NOAA       Earth
Advisory